Huvudsida
METAR-TAF:

METAR-TAF

Flygplatser :

Altenstadt, Tyskland

latitud: 47-50N, longitud: 010-52E, höjd: 739 m

Aktuellt väderrapport

Denna rapport gjordes för 47 minuter sedan, klockan 13:20 UTC
Vind 11 kt från ost
Temperatur 26°C
Fuktighet 42%
Tryck 1021 hPa
Sikt 10 km eller mer
Få moln på en höjd av 4500 ft

METAR: ETHA 241320Z 10011KT 9999 FEW045 26/12 Q1021 BLU+BLU+

Tid: 16:07 (14:07 UTC)

Väderprognos

Denna rapport gjordes för 47 minuter sedan, klockan 13:20 UTC
Prognos gäller från 24 kl. 14 UTC till 24 kl. 23 UTC
Vind 10 kt från ost i byarna ända upp till 20 kt
Sikt 10 km eller mer
Få moln på en höjd av 5000 ft
Spridda moln på en höjd av 35000 ft
Blir
från 24 kl. 17 UTC till 24 kl. 19 UTC
Vind 5 kt från ost
Sikt 10 km eller mer
Spridda moln på en höjd av 35000 ft

TAF: ETHA 241320Z 2414/2423 08010G20KT 9999 NSW FEW050 SCT350 BECMG 2417/2419 08005KT 9999 NSW SCT350

Aktuella väderrapporter och prognoser från 4000 flygplatser (METAR- och TAF-rapporter).

De tillgängliga stationerna syns som gula och röda prickar på kartan.

För musen över prickarna för att se namnen på stationerna.

Klicka sedan för att få väderrapporter och prognoser.

För att ändra kartan: Klicka på de gröna knapparna med ett svart kors på för att zooma in; den gröna knappen med ett streck på för att zooma ut; eller på de gröna pilarna för angränsande kartor.


METAR-TAF: